sensor_id;sensor_type;location;lat;lon;timestamp;temperature;humidity
19610;DHT22;9952;47.122;-1.638;2023-04-15T00:00:47;10.20;99.90
19610;DHT22;9952;47.122;-1.638;2023-04-15T00:05:31;10.10;99.90
19610;DHT22;9952;47.122;-1.638;2023-04-15T00:10:13;10.10;99.90
19610;DHT22;9952;47.122;-1.638;2023-04-15T00:14:56;10.00;99.90
19610;DHT22;9952;47.122;-1.638;2023-04-15T00:19:38;10.00;99.90
19610;DHT22;9952;47.122;-1.638;2023-04-15T00:24:20;9.90;99.90
19610;DHT22;9952;47.122;-1.638;2023-04-15T00:29:01;10.00;99.90
19610;DHT22;9952;47.122;-1.638;2023-04-15T00:33:41;10.00;99.90
19610;DHT22;9952;47.122;-1.638;2023-04-15T00:38:22;10.00;99.90
19610;DHT22;9952;47.122;-1.638;2023-04-15T00:43:03;9.90;99.90
19610;DHT22;9952;47.122;-1.638;2023-04-15T00:47:44;9.80;99.90
19610;DHT22;9952;47.122;-1.638;2023-04-15T00:52:25;9.70;99.90
19610;DHT22;9952;47.122;-1.638;2023-04-15T00:57:06;9.60;99.90
19610;DHT22;9952;47.122;-1.638;2023-04-15T01:01:48;9.60;99.90
19610;DHT22;9952;47.122;-1.638;2023-04-15T01:06:30;9.60;99.90
19610;DHT22;9952;47.122;-1.638;2023-04-15T01:11:12;9.60;99.90
19610;DHT22;9952;47.122;-1.638;2023-04-15T01:15:55;9.50;99.90
19610;DHT22;9952;47.122;-1.638;2023-04-15T01:20:36;9.50;99.90
19610;DHT22;9952;47.122;-1.638;2023-04-15T01:25:18;9.40;99.90
19610;DHT22;9952;47.122;-1.638;2023-04-15T01:29:59;9.40;99.90
19610;DHT22;9952;47.122;-1.638;2023-04-15T01:34:40;9.40;99.90
19610;DHT22;9952;47.122;-1.638;2023-04-15T01:39:21;9.40;99.90
19610;DHT22;9952;47.122;-1.638;2023-04-15T01:44:02;9.30;99.90
19610;DHT22;9952;47.122;-1.638;2023-04-15T01:48:43;9.20;99.90
19610;DHT22;9952;47.122;-1.638;2023-04-15T01:53:24;9.10;99.90
19610;DHT22;9952;47.122;-1.638;2023-04-15T01:58:06;9.10;99.90
19610;DHT22;9952;47.122;-1.638;2023-04-15T02:02:48;9.00;99.90
19610;DHT22;9952;47.122;-1.638;2023-04-15T02:07:28;9.00;99.90
19610;DHT22;9952;47.122;-1.638;2023-04-15T02:12:11;9.00;99.90
19610;DHT22;9952;47.122;-1.638;2023-04-15T02:16:52;8.90;99.90
19610;DHT22;9952;47.122;-1.638;2023-04-15T02:21:33;8.90;99.90
19610;DHT22;9952;47.122;-1.638;2023-04-15T02:26:14;8.80;99.90
19610;DHT22;9952;47.122;-1.638;2023-04-15T02:30:55;8.80;99.90
19610;DHT22;9952;47.122;-1.638;2023-04-15T02:35:38;8.70;99.90
19610;DHT22;9952;47.122;-1.638;2023-04-15T02:40:22;8.60;99.90
19610;DHT22;9952;47.122;-1.638;2023-04-15T02:45:03;8.60;99.90
19610;DHT22;9952;47.122;-1.638;2023-04-15T02:49:44;8.50;99.90
19610;DHT22;9952;47.122;-1.638;2023-04-15T02:54:25;8.50;99.90
19610;DHT22;9952;47.122;-1.638;2023-04-15T02:59:08;8.40;99.90
19610;DHT22;9952;47.122;-1.638;2023-04-15T03:03:48;8.40;99.90
19610;DHT22;9952;47.122;-1.638;2023-04-15T03:08:29;8.30;99.90
19610;DHT22;9952;47.122;-1.638;2023-04-15T03:13:10;8.30;99.90
19610;DHT22;9952;47.122;-1.638;2023-04-15T03:17:51;8.30;99.90
19610;DHT22;9952;47.122;-1.638;2023-04-15T03:22:32;8.30;99.90
19610;DHT22;9952;47.122;-1.638;2023-04-15T03:27:13;8.20;99.90
19610;DHT22;9952;47.122;-1.638;2023-04-15T03:31:54;8.20;99.90
19610;DHT22;9952;47.122;-1.638;2023-04-15T03:36:35;8.10;99.90
19610;DHT22;9952;47.122;-1.638;2023-04-15T03:41:16;8.10;99.90
19610;DHT22;9952;47.122;-1.638;2023-04-15T03:45:57;8.00;99.90
19610;DHT22;9952;47.122;-1.638;2023-04-15T03:50:37;8.00;99.90
19610;DHT22;9952;47.122;-1.638;2023-04-15T03:55:18;8.00;99.90
19610;DHT22;9952;47.122;-1.638;2023-04-15T04:00:00;7.90;99.90
19610;DHT22;9952;47.122;-1.638;2023-04-15T04:04:40;7.90;99.90
19610;DHT22;9952;47.122;-1.638;2023-04-15T04:09:21;7.90;99.90
19610;DHT22;9952;47.122;-1.638;2023-04-15T04:14:02;7.90;99.90
19610;DHT22;9952;47.122;-1.638;2023-04-15T04:18:43;7.80;99.90
19610;DHT22;9952;47.122;-1.638;2023-04-15T04:23:24;7.80;99.90
19610;DHT22;9952;47.122;-1.638;2023-04-15T04:28:06;7.80;99.90
19610;DHT22;9952;47.122;-1.638;2023-04-15T04:32:49;7.70;99.90
19610;DHT22;9952;47.122;-1.638;2023-04-15T04:37:30;7.70;99.90
19610;DHT22;9952;47.122;-1.638;2023-04-15T04:42:11;7.70;99.90
19610;DHT22;9952;47.122;-1.638;2023-04-15T04:46:52;7.80;99.90
19610;DHT22;9952;47.122;-1.638;2023-04-15T04:51:33;7.80;99.90
19610;DHT22;9952;47.122;-1.638;2023-04-15T04:56:13;7.70;99.90
19610;DHT22;9952;47.122;-1.638;2023-04-15T05:00:55;7.70;99.90
19610;DHT22;9952;47.122;-1.638;2023-04-15T05:05:36;7.70;99.90
19610;DHT22;9952;47.122;-1.638;2023-04-15T05:10:18;7.70;99.90
19610;DHT22;9952;47.122;-1.638;2023-04-15T05:14:59;7.70;99.90
19610;DHT22;9952;47.122;-1.638;2023-04-15T05:19:40;7.70;99.90
19610;DHT22;9952;47.122;-1.638;2023-04-15T05:24:22;7.70;99.90
19610;DHT22;9952;47.122;-1.638;2023-04-15T05:29:03;7.70;99.90
19610;DHT22;9952;47.122;-1.638;2023-04-15T05:33:44;7.70;99.90
19610;DHT22;9952;47.122;-1.638;2023-04-15T05:38:24;7.70;99.90
19610;DHT22;9952;47.122;-1.638;2023-04-15T05:43:06;7.70;99.90
19610;DHT22;9952;47.122;-1.638;2023-04-15T05:47:47;7.70;99.90
19610;DHT22;9952;47.122;-1.638;2023-04-15T05:52:33;7.70;99.90
19610;DHT22;9952;47.122;-1.638;2023-04-15T05:57:14;7.80;99.90
19610;DHT22;9952;47.122;-1.638;2023-04-15T06:01:55;7.80;99.90
19610;DHT22;9952;47.122;-1.638;2023-04-15T06:06:36;7.90;99.90
19610;DHT22;9952;47.122;-1.638;2023-04-15T06:11:19;7.90;99.90
19610;DHT22;9952;47.122;-1.638;2023-04-15T06:16:00;8.10;99.90
19610;DHT22;9952;47.122;-1.638;2023-04-15T06:20:41;8.10;99.90
19610;DHT22;9952;47.122;-1.638;2023-04-15T06:25:22;8.20;99.90
19610;DHT22;9952;47.122;-1.638;2023-04-15T06:30:04;8.50;99.90
19610;DHT22;9952;47.122;-1.638;2023-04-15T06:34:44;8.90;99.90
19610;DHT22;9952;47.122;-1.638;2023-04-15T06:39:25;9.60;99.90
19610;DHT22;9952;47.122;-1.638;2023-04-15T06:44:06;10.30;99.90
19610;DHT22;9952;47.122;-1.638;2023-04-15T06:48:48;10.90;99.90
19610;DHT22;9952;47.122;-1.638;2023-04-15T06:53:29;11.40;99.90
19610;DHT22;9952;47.122;-1.638;2023-04-15T06:58:09;11.80;99.90
19610;DHT22;9952;47.122;-1.638;2023-04-15T07:02:50;12.00;99.90
19610;DHT22;9952;47.122;-1.638;2023-04-15T07:07:31;12.30;99.90
19610;DHT22;9952;47.122;-1.638;2023-04-15T07:12:12;12.60;99.90
19610;DHT22;9952;47.122;-1.638;2023-04-15T07:16:53;12.90;99.90
19610;DHT22;9952;47.122;-1.638;2023-04-15T07:21:33;13.20;99.90
19610;DHT22;9952;47.122;-1.638;2023-04-15T07:26:14;13.50;99.90
19610;DHT22;9952;47.122;-1.638;2023-04-15T07:30:55;13.50;99.90
19610;DHT22;9952;47.122;-1.638;2023-04-15T07:35:39;13.80;99.90
19610;DHT22;9952;47.122;-1.638;2023-04-15T07:40:19;13.80;99.90
19610;DHT22;9952;47.122;-1.638;2023-04-15T07:45:01;14.00;99.90
19610;DHT22;9952;47.122;-1.638;2023-04-15T07:49:42;14.20;99.90
19610;DHT22;9952;47.122;-1.638;2023-04-15T07:54:24;14.20;99.90
19610;DHT22;9952;47.122;-1.638;2023-04-15T07:59:05;14.30;99.90
19610;DHT22;9952;47.122;-1.638;2023-04-15T08:03:46;14.30;99.90
19610;DHT22;9952;47.122;-1.638;2023-04-15T08:09:20;14.20;99.90
19610;DHT22;9952;47.122;-1.638;2023-04-15T08:13:54;14.20;99.90
19610;DHT22;9952;47.122;-1.638;2023-04-15T08:18:35;14.30;99.90
19610;DHT22;9952;47.122;-1.638;2023-04-15T08:23:16;14.50;99.90
19610;DHT22;9952;47.122;-1.638;2023-04-15T08:27:57;14.80;99.90
19610;DHT22;9952;47.122;-1.638;2023-04-15T08:32:37;15.00;99.90
19610;DHT22;9952;47.122;-1.638;2023-04-15T08:37:18;15.30;99.90
19610;DHT22;9952;47.122;-1.638;2023-04-15T08:42:03;15.80;99.90
19610;DHT22;9952;47.122;-1.638;2023-04-15T08:46:47;15.80;99.90
19610;DHT22;9952;47.122;-1.638;2023-04-15T08:51:28;15.90;99.90
19610;DHT22;9952;47.122;-1.638;2023-04-15T08:56:09;16.30;99.90
19610;DHT22;9952;47.122;-1.638;2023-04-15T09:00:50;16.40;99.90
19610;DHT22;9952;47.122;-1.638;2023-04-15T09:05:32;16.70;99.90
19610;DHT22;9952;47.122;-1.638;2023-04-15T09:10:13;16.90;99.90
19610;DHT22;9952;47.122;-1.638;2023-04-15T09:14:54;17.60;99.90
19610;DHT22;9952;47.122;-1.638;2023-04-15T09:19:35;18.40;99.90
19610;DHT22;9952;47.122;-1.638;2023-04-15T09:24:16;19.00;99.90
19610;DHT22;9952;47.122;-1.638;2023-04-15T09:29:09;19.00;99.90
19610;DHT22;9952;47.122;-1.638;2023-04-15T09:33:54;19.30;99.90
19610;DHT22;9952;47.122;-1.638;2023-04-15T09:38:54;18.60;99.90
19610;DHT22;9952;47.122;-1.638;2023-04-15T09:43:39;18.80;99.90
19610;DHT22;9952;47.122;-1.638;2023-04-15T09:48:24;19.10;99.90
19610;DHT22;9952;47.122;-1.638;2023-04-15T09:53:15;18.60;99.90
19610;DHT22;9952;47.122;-1.638;2023-04-15T09:57:56;18.10;99.90
19610;DHT22;9952;47.122;-1.638;2023-04-15T10:02:39;17.70;99.90
19610;DHT22;9952;47.122;-1.638;2023-04-15T10:07:21;17.20;99.90
19610;DHT22;9952;47.122;-1.638;2023-04-15T10:12:03;16.80;99.90
19610;DHT22;9952;47.122;-1.638;2023-04-15T10:16:46;16.30;99.90
19610;DHT22;9952;47.122;-1.638;2023-04-15T10:21:29;16.10;99.90
19610;DHT22;9952;47.122;-1.638;2023-04-15T10:26:11;16.10;99.90
19610;DHT22;9952;47.122;-1.638;2023-04-15T10:30:54;15.90;99.90
19610;DHT22;9952;47.122;-1.638;2023-04-15T10:35:36;16.10;99.90
19610;DHT22;9952;47.122;-1.638;2023-04-15T10:40:31;15.70;99.90
19610;DHT22;9952;47.122;-1.638;2023-04-15T10:45:15;15.60;99.90
19610;DHT22;9952;47.122;-1.638;2023-04-15T10:49:59;16.00;99.90
19610;DHT22;9952;47.122;-1.638;2023-04-15T10:54:40;15.70;99.90
19610;DHT22;9952;47.122;-1.638;2023-04-15T10:59:21;15.90;99.90
19610;DHT22;9952;47.122;-1.638;2023-04-15T11:04:02;16.40;99.90
19610;DHT22;9952;47.122;-1.638;2023-04-15T11:08:54;16.60;99.90
19610;DHT22;9952;47.122;-1.638;2023-04-15T11:13:47;16.80;99.90
19610;DHT22;9952;47.122;-1.638;2023-04-15T11:18:29;17.10;99.90
19610;DHT22;9952;47.122;-1.638;2023-04-15T11:23:11;17.00;99.90
19610;DHT22;9952;47.122;-1.638;2023-04-15T11:27:52;17.00;99.90
19610;DHT22;9952;47.122;-1.638;2023-04-15T11:32:40;17.30;99.90
19610;DHT22;9952;47.122;-1.638;2023-04-15T11:37:28;17.00;99.90
19610;DHT22;9952;47.122;-1.638;2023-04-15T11:42:18;16.90;99.90
19610;DHT22;9952;47.122;-1.638;2023-04-15T11:46:58;16.40;99.90
19610;DHT22;9952;47.122;-1.638;2023-04-15T11:51:39;16.70;99.90
19610;DHT22;9952;47.122;-1.638;2023-04-15T11:56:25;16.80;99.90
19610;DHT22;9952;47.122;-1.638;2023-04-15T12:01:06;16.20;99.90
19610;DHT22;9952;47.122;-1.638;2023-04-15T12:06:06;16.40;99.90
19610;DHT22;9952;47.122;-1.638;2023-04-15T12:10:47;16.40;99.90
19610;DHT22;9952;47.122;-1.638;2023-04-15T12:15:28;16.50;99.90
19610;DHT22;9952;47.122;-1.638;2023-04-15T12:20:09;16.90;99.90
19610;DHT22;9952;47.122;-1.638;2023-04-15T12:24:54;16.70;99.90
19610;DHT22;9952;47.122;-1.638;2023-04-15T12:29:38;16.30;99.90
19610;DHT22;9952;47.122;-1.638;2023-04-15T12:34:33;16.60;99.90
19610;DHT22;9952;47.122;-1.638;2023-04-15T12:39:14;16.70;99.90
19610;DHT22;9952;47.122;-1.638;2023-04-15T12:43:55;16.80;99.90
19610;DHT22;9952;47.122;-1.638;2023-04-15T12:48:36;16.70;99.90
19610;DHT22;9952;47.122;-1.638;2023-04-15T12:53:17;16.60;99.90
19610;DHT22;9952;47.122;-1.638;2023-04-15T12:57:58;16.50;99.90
19610;DHT22;9952;47.122;-1.638;2023-04-15T13:02:39;16.70;99.90
19610;DHT22;9952;47.122;-1.638;2023-04-15T13:07:19;16.60;99.90
19610;DHT22;9952;47.122;-1.638;2023-04-15T13:12:01;17.00;99.90
19610;DHT22;9952;47.122;-1.638;2023-04-15T13:16:42;17.60;99.90
19610;DHT22;9952;47.122;-1.638;2023-04-15T13:21:22;17.20;99.90
19610;DHT22;9952;47.122;-1.638;2023-04-15T13:26:03;17.50;99.90
19610;DHT22;9952;47.122;-1.638;2023-04-15T13:30:44;17.40;99.90
19610;DHT22;9952;47.122;-1.638;2023-04-15T13:35:25;16.50;99.90
19610;DHT22;9952;47.122;-1.638;2023-04-15T13:40:06;16.40;99.90
19610;DHT22;9952;47.122;-1.638;2023-04-15T13:44:48;16.70;99.90
19610;DHT22;9952;47.122;-1.638;2023-04-15T13:49:30;16.80;99.90
19610;DHT22;9952;47.122;-1.638;2023-04-15T13:54:11;16.30;99.90
19610;DHT22;9952;47.122;-1.638;2023-04-15T13:58:52;16.10;99.90
19610;DHT22;9952;47.122;-1.638;2023-04-15T14:03:34;15.80;99.90
19610;DHT22;9952;47.122;-1.638;2023-04-15T14:08:15;16.20;99.90
19610;DHT22;9952;47.122;-1.638;2023-04-15T14:12:56;16.50;99.90
19610;DHT22;9952;47.122;-1.638;2023-04-15T14:17:37;17.00;99.90
19610;DHT22;9952;47.122;-1.638;2023-04-15T14:22:18;16.70;99.90
19610;DHT22;9952;47.122;-1.638;2023-04-15T14:26:59;16.60;99.90
19610;DHT22;9952;47.122;-1.638;2023-04-15T14:31:39;16.60;99.90
19610;DHT22;9952;47.122;-1.638;2023-04-15T14:36:20;17.10;99.90
19610;DHT22;9952;47.122;-1.638;2023-04-15T14:41:01;17.20;99.90
19610;DHT22;9952;47.122;-1.638;2023-04-15T14:45:42;17.50;99.90
19610;DHT22;9952;47.122;-1.638;2023-04-15T14:50:23;17.70;99.90
19610;DHT22;9952;47.122;-1.638;2023-04-15T14:55:07;17.10;99.90
19610;DHT22;9952;47.122;-1.638;2023-04-15T14:59:49;17.20;99.90
19610;DHT22;9952;47.122;-1.638;2023-04-15T15:04:35;17.00;99.90
19610;DHT22;9952;47.122;-1.638;2023-04-15T15:09:16;16.80;99.90
19610;DHT22;9952;47.122;-1.638;2023-04-15T15:13:59;16.70;99.90
19610;DHT22;9952;47.122;-1.638;2023-04-15T15:18:40;16.70;99.90
19610;DHT22;9952;47.122;-1.638;2023-04-15T15:23:20;16.60;99.90
19610;DHT22;9952;47.122;-1.638;2023-04-15T15:28:01;16.60;99.90
19610;DHT22;9952;47.122;-1.638;2023-04-15T15:32:42;16.80;99.90
19610;DHT22;9952;47.122;-1.638;2023-04-15T15:37:23;17.00;99.90
19610;DHT22;9952;47.122;-1.638;2023-04-15T15:42:04;17.00;99.90
19610;DHT22;9952;47.122;-1.638;2023-04-15T15:46:46;16.90;99.40
19610;DHT22;9952;47.122;-1.638;2023-04-15T15:51:28;16.70;99.80
19610;DHT22;9952;47.122;-1.638;2023-04-15T15:56:09;16.90;99.50
19610;DHT22;9952;47.122;-1.638;2023-04-15T16:00:50;17.30;99.10
19610;DHT22;9952;47.122;-1.638;2023-04-15T16:05:31;17.30;98.80
19610;DHT22;9952;47.122;-1.638;2023-04-15T16:10:11;17.30;98.50
19610;DHT22;9952;47.122;-1.638;2023-04-15T16:14:53;17.20;98.90
19610;DHT22;9952;47.122;-1.638;2023-04-15T16:19:34;17.30;96.90
19610;DHT22;9952;47.122;-1.638;2023-04-15T16:24:15;17.20;97.30
19610;DHT22;9952;47.122;-1.638;2023-04-15T16:28:55;17.10;97.60
19610;DHT22;9952;47.122;-1.638;2023-04-15T16:33:37;17.00;96.40
19610;DHT22;9952;47.122;-1.638;2023-04-15T16:38:17;17.10;96.40
19610;DHT22;9952;47.122;-1.638;2023-04-15T16:42:58;17.00;95.70
19610;DHT22;9952;47.122;-1.638;2023-04-15T16:47:39;16.90;96.50
19610;DHT22;9952;47.122;-1.638;2023-04-15T16:52:20;16.90;96.00
19610;DHT22;9952;47.122;-1.638;2023-04-15T16:57:01;16.80;97.80
19610;DHT22;9952;47.122;-1.638;2023-04-15T17:01:42;16.90;95.50
19610;DHT22;9952;47.122;-1.638;2023-04-15T17:06:23;16.70;94.90
19610;DHT22;9952;47.122;-1.638;2023-04-15T17:11:04;16.50;94.70
19610;DHT22;9952;47.122;-1.638;2023-04-15T17:15:45;16.40;96.20
19610;DHT22;9952;47.122;-1.638;2023-04-15T17:20:26;16.40;95.30
19610;DHT22;9952;47.122;-1.638;2023-04-15T17:25:08;16.40;95.10
19610;DHT22;9952;47.122;-1.638;2023-04-15T17:34:32;16.20;94.90
19610;DHT22;9952;47.122;-1.638;2023-04-15T17:39:13;16.00;97.60
19610;DHT22;9952;47.122;-1.638;2023-04-15T17:43:55;15.80;99.00
19610;DHT22;9952;47.122;-1.638;2023-04-15T17:48:35;15.80;98.70
19610;DHT22;9952;47.122;-1.638;2023-04-15T17:53:16;15.80;98.60
19610;DHT22;9952;47.122;-1.638;2023-04-15T17:57:57;15.70;99.30
19610;DHT22;9952;47.122;-1.638;2023-04-15T18:02:38;15.60;99.90
19610;DHT22;9952;47.122;-1.638;2023-04-15T18:07:19;15.60;99.90
19610;DHT22;9952;47.122;-1.638;2023-04-15T18:12:01;15.50;99.90
19610;DHT22;9952;47.122;-1.638;2023-04-15T18:16:42;15.30;99.90
19610;DHT22;9952;47.122;-1.638;2023-04-15T18:21:23;15.20;99.90
19610;DHT22;9952;47.122;-1.638;2023-04-15T18:26:04;15.00;99.90
19610;DHT22;9952;47.122;-1.638;2023-04-15T18:30:45;14.70;99.90
19610;DHT22;9952;47.122;-1.638;2023-04-15T18:35:26;14.60;99.90
19610;DHT22;9952;47.122;-1.638;2023-04-15T18:40:09;14.50;99.90
19610;DHT22;9952;47.122;-1.638;2023-04-15T18:44:51;14.40;99.90
19610;DHT22;9952;47.122;-1.638;2023-04-15T18:49:32;14.30;99.90
19610;DHT22;9952;47.122;-1.638;2023-04-15T18:54:13;14.20;99.90
19610;DHT22;9952;47.122;-1.638;2023-04-15T18:58:54;14.00;99.90
19610;DHT22;9952;47.122;-1.638;2023-04-15T19:03:35;13.90;99.90
19610;DHT22;9952;47.122;-1.638;2023-04-15T19:08:16;13.80;99.90
19610;DHT22;9952;47.122;-1.638;2023-04-15T19:12:57;13.60;99.90
19610;DHT22;9952;47.122;-1.638;2023-04-15T19:17:39;13.50;99.90
19610;DHT22;9952;47.122;-1.638;2023-04-15T19:22:20;13.50;99.90
19610;DHT22;9952;47.122;-1.638;2023-04-15T19:27:01;13.40;99.90
19610;DHT22;9952;47.122;-1.638;2023-04-15T19:31:42;13.20;99.90
19610;DHT22;9952;47.122;-1.638;2023-04-15T19:36:22;13.10;99.90
19610;DHT22;9952;47.122;-1.638;2023-04-15T19:41:03;12.90;99.90
19610;DHT22;9952;47.122;-1.638;2023-04-15T19:45:44;12.80;99.90
19610;DHT22;9952;47.122;-1.638;2023-04-15T19:50:26;12.80;99.90
19610;DHT22;9952;47.122;-1.638;2023-04-15T19:55:07;12.60;99.90
19610;DHT22;9952;47.122;-1.638;2023-04-15T19:59:48;12.40;99.90
19610;DHT22;9952;47.122;-1.638;2023-04-15T20:04:29;12.40;99.90
19610;DHT22;9952;47.122;-1.638;2023-04-15T20:09:09;12.40;99.90
19610;DHT22;9952;47.122;-1.638;2023-04-15T20:13:50;12.30;99.90
19610;DHT22;9952;47.122;-1.638;2023-04-15T20:18:31;12.10;99.90
19610;DHT22;9952;47.122;-1.638;2023-04-15T20:23:11;12.10;99.90
19610;DHT22;9952;47.122;-1.638;2023-04-15T20:27:52;12.10;99.90
19610;DHT22;9952;47.122;-1.638;2023-04-15T20:32:33;12.00;99.90
19610;DHT22;9952;47.122;-1.638;2023-04-15T20:37:17;12.00;99.90
19610;DHT22;9952;47.122;-1.638;2023-04-15T20:41:58;11.90;99.90
19610;DHT22;9952;47.122;-1.638;2023-04-15T20:46:40;11.80;99.90
19610;DHT22;9952;47.122;-1.638;2023-04-15T20:51:21;11.70;99.90
19610;DHT22;9952;47.122;-1.638;2023-04-15T20:56:02;11.60;99.90
19610;DHT22;9952;47.122;-1.638;2023-04-15T21:00:43;11.50;99.90
19610;DHT22;9952;47.122;-1.638;2023-04-15T21:05:24;11.40;99.90
19610;DHT22;9952;47.122;-1.638;2023-04-15T21:10:05;11.40;99.90
19610;DHT22;9952;47.122;-1.638;2023-04-15T21:14:46;11.30;99.90
19610;DHT22;9952;47.122;-1.638;2023-04-15T21:19:27;11.20;99.90
19610;DHT22;9952;47.122;-1.638;2023-04-15T21:24:08;11.10;99.90
19610;DHT22;9952;47.122;-1.638;2023-04-15T21:28:49;11.10;99.90
19610;DHT22;9952;47.122;-1.638;2023-04-15T21:33:29;10.90;99.90
19610;DHT22;9952;47.122;-1.638;2023-04-15T21:38:10;10.80;99.90
19610;DHT22;9952;47.122;-1.638;2023-04-15T21:42:51;10.60;99.90
19610;DHT22;9952;47.122;-1.638;2023-04-15T21:47:32;10.60;99.90
19610;DHT22;9952;47.122;-1.638;2023-04-15T21:52:13;10.50;99.90
19610;DHT22;9952;47.122;-1.638;2023-04-15T21:56:53;10.50;99.90
19610;DHT22;9952;47.122;-1.638;2023-04-15T22:01:34;10.50;99.90
19610;DHT22;9952;47.122;-1.638;2023-04-15T22:06:15;10.40;99.90
19610;DHT22;9952;47.122;-1.638;2023-04-15T22:10:56;10.30;99.90
19610;DHT22;9952;47.122;-1.638;2023-04-15T22:15:37;10.10;99.90
19610;DHT22;9952;47.122;-1.638;2023-04-15T22:20:18;10.00;99.90
19610;DHT22;9952;47.122;-1.638;2023-04-15T22:24:58;9.90;99.90
19610;DHT22;9952;47.122;-1.638;2023-04-15T22:29:39;9.90;99.90
19610;DHT22;9952;47.122;-1.638;2023-04-15T22:34:20;9.80;99.90
19610;DHT22;9952;47.122;-1.638;2023-04-15T22:39:01;9.70;99.90
19610;DHT22;9952;47.122;-1.638;2023-04-15T22:43:42;9.60;99.90
19610;DHT22;9952;47.122;-1.638;2023-04-15T22:48:22;9.60;99.90
19610;DHT22;9952;47.122;-1.638;2023-04-15T22:53:03;9.50;99.90
19610;DHT22;9952;47.122;-1.638;2023-04-15T22:57:44;9.50;99.90
19610;DHT22;9952;47.122;-1.638;2023-04-15T23:02:25;9.30;99.90
19610;DHT22;9952;47.122;-1.638;2023-04-15T23:07:05;9.30;99.90
19610;DHT22;9952;47.122;-1.638;2023-04-15T23:11:46;9.20;99.90
19610;DHT22;9952;47.122;-1.638;2023-04-15T23:16:27;9.10;99.90
19610;DHT22;9952;47.122;-1.638;2023-04-15T23:21:08;8.90;99.90
19610;DHT22;9952;47.122;-1.638;2023-04-15T23:25:49;8.80;99.90
19610;DHT22;9952;47.122;-1.638;2023-04-15T23:30:30;8.70;99.90
19610;DHT22;9952;47.122;-1.638;2023-04-15T23:35:10;8.60;99.90
19610;DHT22;9952;47.122;-1.638;2023-04-15T23:39:51;8.50;99.90
19610;DHT22;9952;47.122;-1.638;2023-04-15T23:44:32;8.40;99.90
19610;DHT22;9952;47.122;-1.638;2023-04-15T23:49:13;8.40;99.90
19610;DHT22;9952;47.122;-1.638;2023-04-15T23:53:54;8.20;99.90
19610;DHT22;9952;47.122;-1.638;2023-04-15T23:58:35;8.20;99.90
